Time;durP1;ratioP1;P1;durP2;ratioP2;P2;SDS_P1;SDS_P2;PMS_P1;PMS_P2;Temp;Humidity;BMP_temperature;BMP_pressure;BME280_temperature;BME280_humidity;BME280_pressure;Samples;Min_cycle;Max_cycle;Signal;HPM_P1;HPM_P2
2021/04/25 00:02:11;;;;;;;7.90;3.35;;;;;;;1.31;67.15;99874.68;1699210;83;21262;-58
2021/04/25 00:04:38;;;;;;;8.75;3.60;;;;;;;1.31;67.08;99879.25;1718962;82;21168;-59
2021/04/25 00:07:06;;;;;;;9.80;3.55;;;;;;;1.28;67.15;99880.47;1718535;83;21189;-58
2021/04/25 00:09:33;;;;;;;10.05;3.75;;;;;;;1.26;67.02;99881.20;1723030;81;21186;-58
2021/04/25 00:12:02;;;;;;;7.03;3.35;;;;;;;1.23;67.06;99874.09;1721610;82;21164;-59
2021/04/25 00:14:29;;;;;;;6.25;3.10;;;;;;;1.26;67.04;99876.35;1707672;82;21191;-58
2021/04/25 00:16:58;;;;;;;9.68;3.70;;;;;;;1.24;67.02;99875.75;1739677;82;21132;-58
2021/04/25 00:19:26;;;;;;;9.03;3.75;;;;;;;1.22;67.03;99864.39;1730953;82;21124;-58
2021/04/25 00:21:53;;;;;;;7.62;3.67;;;;;;;1.20;67.05;99874.51;1735218;82;21116;-58
2021/04/25 00:25:20;;;;;;;10.18;3.95;;;;;;;1.21;67.03;99864.90;1785953;79;22819;-58
2021/04/25 00:27:47;;;;;;;8.40;3.42;;;;;;;1.14;67.16;99868.61;1753725;82;21676;-58
2021/04/25 00:30:19;;;;;;;7.83;3.25;;;;;;;1.12;67.31;99868.84;1753630;80;21561;-58
2021/04/25 00:32:46;;;;;;;8.58;3.52;;;;;;;1.08;67.37;99866.27;1754217;80;21113;-58
2021/04/25 00:35:15;;;;;;;7.28;3.45;;;;;;;1.07;67.29;99861.92;1740251;81;21603;-58
2021/04/25 00:37:43;;;;;;;7.15;3.52;;;;;;;1.03;67.44;99853.98;1733400;80;21149;-60
2021/04/25 00:40:12;;;;;;;7.22;3.83;;;;;;;1.02;67.50;99859.56;1729902;81;21161;-59
2021/04/25 00:42:40;;;;;;;7.12;3.30;;;;;;;1.03;67.56;99849.95;1746017;81;21510;-59
2021/04/25 00:45:14;;;;;;;9.45;3.50;;;;;;;0.99;67.75;99853.57;1757486;81;21527;-59
2021/04/25 00:47:43;;;;;;;7.05;3.20;;;;;;;0.97;68.00;99850.80;1753980;81;21181;-59
2021/04/25 00:50:12;;;;;;;8.63;3.80;;;;;;;0.93;68.09;99850.38;1752825;81;21207;-59
2021/04/25 00:52:44;;;;;;;7.47;3.72;;;;;;;0.87;68.27;99851.22;1754660;81;21157;-57
2021/04/25 00:55:16;;;;;;;8.93;3.98;;;;;;;0.81;68.33;99844.52;1753486;82;21172;-58
2021/04/25 00:57:43;;;;;;;10.40;4.60;;;;;;;0.77;68.51;99840.09;1713026;83;21303;-58
2021/04/25 01:00:14;;;;;;;8.65;4.53;;;;;;;0.72;68.80;99840.38;1729532;82;21129;-58
2021/04/25 01:02:41;;;;;;;10.10;4.28;;;;;;;0.68;68.89;99834.61;1750906;82;21125;-58
2021/04/25 01:05:11;;;;;;;7.55;3.83;;;;;;;0.67;68.90;99835.66;1753437;82;21213;-58
2021/04/25 01:07:39;;;;;;;10.48;4.30;;;;;;;0.67;69.11;99830.81;1740202;81;21129;-59
2021/04/25 01:10:08;;;;;;;9.95;4.20;;;;;;;0.62;69.45;99829.25;1753805;80;21161;-58
2021/04/25 01:12:37;;;;;;;9.88;4.40;;;;;;;0.60;69.26;99832.16;1755082;81;21585;-58
2021/04/25 01:15:06;;;;;;;8.15;3.87;;;;;;;0.57;69.43;99825.05;1754600;80;21608;-59
2021/04/25 01:17:34;;;;;;;9.98;4.97;;;;;;;0.55;69.38;99823.06;1753417;81;21160;-59
2021/04/25 01:20:01;;;;;;;9.35;4.40;;;;;;;0.56;69.54;99826.89;1753639;82;21141;-59
2021/04/25 01:22:30;;;;;;;8.18;4.58;;;;;;;0.57;69.47;99824.50;1753612;82;21169;-59
2021/04/25 01:24:57;;;;;;;8.65;4.50;;;;;;;0.54;69.53;99808.02;1754396;80;21576;-58
2021/04/25 01:27:24;;;;;;;10.20;4.42;;;;;;;0.53;69.76;99811.74;1748010;82;21121;-60
2021/04/25 01:29:53;;;;;;;8.90;4.20;;;;;;;0.51;69.81;99818.63;1745388;80;21141;-58
2021/04/25 01:32:20;;;;;;;10.03;4.62;;;;;;;0.49;69.81;99813.50;1746096;82;21570;-58
2021/04/25 01:34:48;;;;;;;11.93;4.90;;;;;;;0.45;70.03;99810.09;1748761;80;21166;-58
2021/04/25 01:37:16;;;;;;;12.82;4.70;;;;;;;0.43;70.05;99810.78;1753860;80;21679;-58
2021/04/25 01:39:43;;;;;;;10.35;5.10;;;;;;;0.43;70.05;99810.27;1739663;80;21649;-57
2021/04/25 01:42:10;;;;;;;13.85;8.75;;;;;;;0.43;70.00;99809.45;1748472;82;21177;-58
2021/04/25 01:44:38;;;;;;;13.55;7.80;;;;;;;0.41;70.01;99806.16;1748262;82;21622;-58
2021/04/25 01:47:05;;;;;;;11.55;6.33;;;;;;;0.43;70.06;99798.22;1748337;82;21158;-57
2021/04/25 01:49:34;;;;;;;9.78;5.12;;;;;;;0.41;70.10;99797.62;1743585;80;21404;-57
2021/04/25 01:52:03;;;;;;;10.25;4.10;;;;;;;0.44;69.97;99790.51;1748072;82;21597;-59
2021/04/25 01:54:30;;;;;;;9.93;4.30;;;;;;;0.45;69.91;99794.02;1751319;80;21215;-59
2021/04/25 01:56:58;;;;;;;10.05;4.95;;;;;;;0.45;69.99;99784.12;1742583;82;21600;-59
2021/04/25 01:59:26;;;;;;;13.38;5.12;;;;;;;0.47;70.00;99780.72;1746769;80;21668;-59
2021/04/25 02:01:54;;;;;;;10.88;5.12;;;;;;;0.48;70.12;99778.87;1748754;82;21169;-59
2021/04/25 02:04:22;;;;;;;9.80;4.50;;;;;;;0.53;70.11;99795.16;1748628;82;21198;-58
2021/04/25 02:06:50;;;;;;;9.15;4.65;;;;;;;0.57;70.20;99793.69;1720243;82;21613;-59
2021/04/25 02:09:18;;;;;;;10.23;4.65;;;;;;;0.60;70.29;99785.78;1748054;82;21642;-59
2021/04/25 02:11:45;;;;;;;8.60;4.15;;;;;;;0.70;70.12;99783.00;1742917;82;21557;-59
2021/04/25 02:14:13;;;;;;;10.43;4.75;;;;;;;0.78;70.04;99784.11;1728920;80;21189;-59
2021/04/25 02:16:40;;;;;;;9.78;4.20;;;;;;;0.89;69.73;99783.48;1724013;82;21692;-58
2021/04/25 02:19:08;;;;;;;8.60;4.20;;;;;;;0.97;69.49;99783.78;1742140;80;21185;-60
2021/04/25 02:21:36;;;;;;;8.75;4.55;;;;;;;1.08;69.16;99788.52;1753008;81;21125;-59
2021/04/25 02:24:05;;;;;;;7.72;4.25;;;;;;;1.15;69.02;99779.11;1750224;80;21184;-58
2021/04/25 02:26:32;;;;;;;8.53;4.60;;;;;;;1.20;68.97;99773.95;1745370;80;21212;-58
2021/04/25 02:29:00;;;;;;;9.13;3.90;;;;;;;1.23;68.86;99775.70;1745746;80;21133;-59
2021/04/25 02:31:27;;;;;;;15.90;4.53;;;;;;;1.30;68.69;99781.86;1744459;80;21149;-59
2021/04/25 02:33:55;;;;;;;9.83;4.47;;;;;;;1.34;68.68;99777.73;1744391;80;21165;-59
2021/04/25 02:36:24;;;;;;;8.53;4.28;;;;;;;1.38;68.75;99775.45;1720740;82;21158;-59
2021/04/25 02:38:51;;;;;;;10.82;4.40;;;;;;;1.41;68.51;99763.78;1745415;82;21240;-59
2021/04/25 02:41:18;;;;;;;7.25;3.75;;;;;;;1.44;68.39;99766.03;1748805;82;21585;-58
2021/04/25 02:43:46;;;;;;;8.63;4.05;;;;;;;1.50;68.16;99767.03;1749584;80;21234;-59
2021/04/25 02:46:15;;;;;;;9.68;4.75;;;;;;;1.54;68.11;99760.21;1745826;82;21158;-59
2021/04/25 02:48:42;;;;;;;9.20;3.95;;;;;;;1.59;68.00;99754.22;1744004;82;21608;-59
2021/04/25 02:51:10;;;;;;;8.08;4.22;;;;;;;1.60;67.93;99754.50;1748241;82;21142;-59
2021/04/25 02:53:37;;;;;;;8.20;3.58;;;;;;;1.63;67.84;99761.60;1749015;82;22026;-59
2021/04/25 02:56:05;;;;;;;9.43;4.40;;;;;;;1.64;67.80;99759.23;1748785;82;21146;-59
2021/04/25 02:58:33;;;;;;;7.85;4.08;;;;;;;1.67;67.66;99760.66;1749258;80;21549;-58
2021/04/25 03:01:01;;;;;;;7.60;4.22;;;;;;;1.66;67.58;99761.20;1745315;80;21173;-58
2021/04/25 03:03:29;;;;;;;7.78;4.30;;;;;;;1.69;67.41;99763.97;1743030;82;21158;-58
2021/04/25 03:05:58;;;;;;;8.93;4.78;;;;;;;1.68;67.34;99767.16;1743060;80;21623;-58
2021/04/25 03:08:25;;;;;;;8.50;4.40;;;;;;;1.67;67.32;99761.48;1739910;82;21561;-58
2021/04/25 03:10:53;;;;;;;10.68;5.60;;;;;;;1.64;67.35;99761.09;1744748;80;21154;-58
2021/04/25 03:13:20;;;;;;;10.53;5.83;;;;;;;1.64;67.38;99760.58;1748919;82;21145;-58
2021/04/25 03:15:48;;;;;;;9.23;5.10;;;;;;;1.68;67.39;99767.16;1748944;82;21720;-58
2021/04/25 03:18:16;;;;;;;12.73;6.92;;;;;;;1.68;67.42;99765.00;1745779;80;21154;-58
2021/04/25 03:20:44;;;;;;;12.07;6.95;;;;;;;1.73;67.33;99765.19;1746975;82;21177;-59
2021/04/25 03:23:11;;;;;;;10.13;6.15;;;;;;;1.72;67.33;99762.20;1743932;82;21587;-58
2021/04/25 03:25:40;;;;;;;10.08;5.53;;;;;;;1.75;67.33;99768.47;1736163;82;21185;-59
2021/04/25 03:28:08;;;;;;;11.25;5.53;;;;;;;1.75;67.18;99772.50;1664537;86;21213;-59
2021/04/25 03:30:35;;;;;;;8.90;4.83;;;;;;;1.75;67.08;99768.47;1744690;81;21194;-60
2021/04/25 03:33:03;;;;;;;11.38;5.62;;;;;;;1.76;67.28;99762.08;1730447;82;21279;-60
2021/04/25 03:35:31;;;;;;;7.37;4.62;;;;;;;1.75;67.33;99763.11;1727186;82;21462;-60
2021/04/25 03:37:59;;;;;;;9.65;5.60;;;;;;;1.75;67.18;99757.73;1665763;86;21197;-59
2021/04/25 03:40:26;;;;;;;10.05;5.58;;;;;;;1.75;67.29;99762.59;1728823;82;21311;-59
2021/04/25 03:42:54;;;;;;;11.28;5.03;;;;;;;1.82;67.29;99765.23;1714254;82;21165;-59
2021/04/25 03:45:21;;;;;;;11.08;5.22;;;;;;;1.90;67.39;99767.68;1728196;82;21130;-59
2021/04/25 03:47:51;;;;;;;12.20;5.17;;;;;;;2.03;67.09;99756.85;1744516;82;21589;-57
2021/04/25 03:50:21;;;;;;;9.30;4.62;;;;;;;2.18;66.60;99761.41;1725371;82;21138;-58
2021/04/25 03:52:48;;;;;;;8.53;4.70;;;;;;;2.35;66.41;99758.50;1743330;82;21170;-58
2021/04/25 03:55:17;;;;;;;10.58;4.70;;;;;;;2.61;65.98;99763.37;1738530;82;21153;-59
2021/04/25 03:57:45;;;;;;;9.08;4.70;;;;;;;2.84;65.40;99755.49;1730137;82;21601;-59
2021/04/25 04:02:57;;;;;;;11.60;4.70;;;;;;;3.31;63.69;99750.77;1661685;86;21657;-59
2021/04/25 04:05:24;;;;;;;9.33;4.15;;;;;;;3.60;62.97;99748.36;1665680;85;21177;-58
2021/04/25 04:07:52;;;;;;;7.75;3.90;;;;;;;3.85;62.30;99758.50;1700352;83;21205;-59
2021/04/25 04:10:20;;;;;;;9.43;4.97;;;;;;;4.13;61.31;99749.81;1700596;83;21204;-59
2021/04/25 04:12:47;;;;;;;7.97;4.37;;;;;;;4.39;61.13;99747.53;1700490;84;21679;-60
2021/04/25 04:15:15;;;;;;;11.45;4.62;;;;;;;4.65;60.89;99749.51;1700424;84;21715;-59
2021/04/25 04:17:42;;;;;;;7.42;4.72;;;;;;;4.96;59.18;99745.95;1700222;84;21164;-58
2021/04/25 04:20:12;;;;;;;8.00;4.62;;;;;;;5.16;58.51;99753.70;1700291;83;21145;-58
2021/04/25 04:22:40;;;;;;;10.48;4.60;;;;;;;5.32;57.82;99756.18;1700259;84;21312;-59
2021/04/25 04:25:09;;;;;;;7.97;4.22;;;;;;;5.41;57.36;99756.95;1700380;83;21154;-59
2021/04/25 04:27:36;;;;;;;6.45;4.22;;;;;;;5.46;57.11;99757.04;1700361;84;21636;-59
2021/04/25 04:30:09;;;;;;;7.17;4.15;;;;;;;5.50;56.96;99766.84;1700373;83;21622;-59
2021/04/25 04:32:37;;;;;;;9.00;4.45;;;;;;;5.55;56.67;99769.66;1700422;83;21235;-59
2021/04/25 04:35:06;;;;;;;10.50;3.83;;;;;;;5.67;56.63;99760.19;1699797;84;21137;-59
2021/04/25 04:37:34;;;;;;;8.40;4.08;;;;;;;5.74;56.59;99761.66;1700466;84;21221;-58
2021/04/25 04:40:01;;;;;;;8.63;4.30;;;;;;;5.75;55.75;99761.13;1700408;83;21161;-59
2021/04/25 04:42:29;;;;;;;8.80;4.65;;;;;;;5.77;55.91;99765.78;1700541;83;21144;-59
2021/04/25 04:44:57;;;;;;;8.68;4.45;;;;;;;5.91;56.38;99768.53;1670292;84;21155;-59
2021/04/25 04:47:24;;;;;;;8.08;4.05;;;;;;;6.12;55.60;99765.16;1699043;84;21141;-59
2021/04/25 04:49:51;;;;;;;7.03;4.45;;;;;;;6.17;55.01;99758.47;1700162;83;21176;-59
2021/04/25 04:52:19;;;;;;;8.30;4.40;;;;;;;6.13;54.75;99762.72;1700550;83;21594;-59
2021/04/25 04:54:46;;;;;;;9.38;4.90;;;;;;;6.11;55.11;99758.63;1700260;84;21200;-59
2021/04/25 04:57:15;;;;;;;7.05;4.37;;;;;;;6.07;54.91;99758.29;1670754;84;21183;-59
2021/04/25 04:59:43;;;;;;;8.33;4.62;;;;;;;6.12;55.36;99754.34;1700053;83;21190;-59
2021/04/25 05:02:11;;;;;;;7.40;4.45;;;;;;;6.22;55.67;99746.41;1724521;82;21297;-59
2021/04/25 05:04:39;;;;;;;8.60;5.05;;;;;;;6.31;55.42;99749.00;1744757;82;21213;-59
2021/04/25 05:07:07;;;;;;;9.35;4.58;;;;;;;6.41;56.13;99742.97;1743041;82;21211;-59
2021/04/25 05:09:35;;;;;;;9.38;4.35;;;;;;;6.57;55.33;99746.73;1724586;82;21163;-59
2021/04/25 05:12:02;;;;;;;9.15;4.70;;;;;;;6.73;55.17;99745.92;1742247;82;21175;-59
2021/04/25 05:14:30;;;;;;;9.35;4.67;;;;;;;6.81;54.82;99756.31;1700144;83;21174;-59
2021/04/25 05:16:59;;;;;;;7.83;4.65;;;;;;;6.78;54.35;99761.70;1723531;82;21183;-60
2021/04/25 05:19:27;;;;;;;7.53;4.30;;;;;;;6.83;55.20;99759.61;1718994;82;21223;-58
2021/04/25 05:21:55;;;;;;;8.33;4.25;;;;;;;6.94;55.20;99762.20;1731902;82;21591;-58
2021/04/25 05:24:23;;;;;;;7.30;3.85;;;;;;;7.11;54.88;99760.03;1734783;82;21190;-58
2021/04/25 05:26:51;;;;;;;6.95;4.08;;;;;;;7.36;53.64;99761.22;1685123;82;21729;-58
2021/04/25 05:29:19;;;;;;;9.70;4.50;;;;;;;7.49;53.12;99756.78;1744336;82;21147;-58
2021/04/25 05:31:46;;;;;;;8.88;4.53;;;;;;;7.57;52.33;99765.55;1732254;82;21599;-59
2021/04/25 05:34:14;;;;;;;7.12;4.22;;;;;;;7.66;52.86;99765.37;1728546;82;21158;-59
2021/04/25 05:36:42;;;;;;;8.53;4.75;;;;;;;7.89;52.59;99764.60;1723062;82;21166;-59
2021/04/25 05:39:09;;;;;;;6.92;4.00;;;;;;;8.01;52.70;99760.38;1722243;82;21305;-59
2021/04/25 05:41:37;;;;;;;9.85;5.42;;;;;;;8.12;51.96;99766.73;1722038;82;21186;-60
2021/04/25 05:44:06;;;;;;;9.75;4.70;;;;;;;8.20;51.10;99761.67;1720660;82;21313;-59
2021/04/25 05:46:34;;;;;;;7.97;4.58;;;;;;;8.18;50.65;99769.80;1736246;82;21308;-59
2021/04/25 05:49:05;;;;;;;8.80;4.85;;;;;;;8.11;50.66;99771.36;1730239;82;21158;-59
2021/04/25 05:51:32;;;;;;;8.00;5.17;;;;;;;8.06;51.07;99760.98;1721484;82;21199;-60
2021/04/25 05:54:00;;;;;;;8.58;5.30;;;;;;;8.04;51.15;99765.84;1723544;82;21617;-60
2021/04/25 05:56:28;;;;;;;9.73;5.37;;;;;;;8.06;51.74;99765.87;1733242;82;21183;-59
2021/04/25 05:58:55;;;;;;;10.68;5.60;;;;;;;8.21;51.89;99759.25;1728994;82;21139;-59
2021/04/25 06:01:24;;;;;;;9.83;5.85;;;;;;;8.35;50.30;99765.94;1731446;82;21200;-59
2021/04/25 06:03:51;;;;;;;10.93;5.72;;;;;;;8.35;51.88;99768.66;1738151;82;21439;-58
2021/04/25 06:06:21;;;;;;;8.73;4.95;;;;;;;8.50;51.29;99763.34;1724917;82;21193;-59
2021/04/25 06:08:49;;;;;;;9.88;5.53;;;;;;;8.61;51.80;99768.89;1688636;85;21202;-58
2021/04/25 06:11:16;;;;;;;11.28;6.00;;;;;;;8.87;50.94;99762.58;1732632;82;21179;-61
2021/04/25 06:13:44;;;;;;;10.03;5.15;;;;;;;9.18;49.85;99757.64;1724549;82;21174;-57
2021/04/25 06:16:12;;;;;;;9.00;4.85;;;;;;;9.35;49.06;99754.77;1733283;82;21479;-59
2021/04/25 06:18:39;;;;;;;9.95;4.58;;;;;;;9.45;47.93;99756.18;1732288;82;21166;-58
2021/04/25 06:21:07;;;;;;;9.63;5.00;;;;;;;9.44;48.30;99751.28;1699135;83;21174;-59
2021/04/25 06:23:35;;;;;;;10.88;5.17;;;;;;;9.33;48.31;99746.88;1721042;83;21175;-59
2021/04/25 06:26:02;;;;;;;7.50;4.30;;;;;;;9.26;48.94;99736.78;1703521;83;21245;-60
2021/04/25 06:28:30;;;;;;;8.00;4.83;;;;;;;9.44;49.98;99743.67;1721675;82;21186;-64
2021/04/25 06:30:58;;;;;;;7.95;4.80;;;;;;;9.74;48.04;99733.48;1721064;83;21325;-71
2021/04/25 06:33:26;;;;;;;7.58;5.37;;;;;;;9.94;47.28;99731.65;1727294;82;21581;-64
2021/04/25 06:35:53;;;;;;;7.03;4.30;;;;;;;10.06;46.36;99742.27;1730392;82;21135;-64
2021/04/25 06:38:21;;;;;;;8.38;3.75;;;;;;;10.14;46.60;99739.56;1726957;82;21194;-63
2021/04/25 06:40:49;;;;;;;9.35;4.12;;;;;;;10.30;46.36;99747.55;1726805;82;21179;-64
2021/04/25 06:43:18;;;;;;;6.55;3.72;;;;;;;10.49;46.00;99741.02;1721264;83;21880;-61
2021/04/25 06:45:48;;;;;;;6.87;3.33;;;;;;;10.70;45.80;99747.31;1722966;82;21167;-67
2021/04/25 06:48:16;;;;;;;6.20;4.10;;;;;;;10.83;44.52;99752.20;1735486;82;21302;-64
2021/04/25 06:50:43;;;;;;;6.40;3.95;;;;;;;10.86;44.36;99741.58;1738235;82;21159;-60
2021/04/25 06:53:11;;;;;;;5.47;3.35;;;;;;;10.75;43.71;99745.39;1733521;82;21372;-67
2021/04/25 06:55:39;;;;;;;6.50;3.85;;;;;;;10.73;44.63;99750.84;1723866;82;21151;-68
2021/04/25 06:58:06;;;;;;;8.90;4.17;;;;;;;10.82;44.33;99753.28;1729086;82;21765;-67
2021/04/25 07:00:34;;;;;;;7.60;3.98;;;;;;;10.92;44.38;99752.73;1730504;82;21155;-66
2021/04/25 07:03:03;;;;;;;5.92;3.33;;;;;;;11.04;44.00;99763.90;1738284;82;21163;-64
2021/04/25 07:05:31;;;;;;;7.70;3.45;;;;;;;11.12;43.67;99760.09;1698095;81;21210;-64
2021/04/25 07:07:59;;;;;;;7.75;3.85;;;;;;;11.16;44.35;99752.97;1732278;82;21189;-63
2021/04/25 07:10:26;;;;;;;7.47;3.37;;;;;;;11.26;43.71;99750.80;1730120;82;21316;-64
2021/04/25 07:12:55;;;;;;;6.65;3.80;;;;;;;11.44;43.01;99757.81;1728772;82;21316;-69
2021/04/25 07:15:22;;;;;;;5.95;3.62;;;;;;;11.45;43.21;99765.45;1726205;81;21206;-69
2021/04/25 07:17:51;;;;;;;7.17;4.12;;;;;;;11.43;42.89;99767.65;1748893;82;21208;-69
2021/04/25 07:20:19;;;;;;;7.42;4.75;;;;;;;11.43;42.62;99763.02;1724249;82;21164;-67
2021/04/25 07:22:46;;;;;;;6.60;4.37;;;;;;;11.39;41.83;99760.57;1723570;82;21233;-64
2021/04/25 07:25:14;;;;;;;6.20;3.77;;;;;;;11.14;42.11;99767.42;1729247;82;21829;-65
2021/04/25 07:27:41;;;;;;;11.83;5.80;;;;;;;10.90;42.51;99759.55;1728326;82;21187;-66
2021/04/25 07:30:11;;;;;;;7.53;4.05;;;;;;;10.79;44.05;99764.73;1709175;82;21189;-67
2021/04/25 07:32:39;;;;;;;6.75;4.30;;;;;;;10.71;44.18;99758.45;1729504;82;21198;-65
2021/04/25 07:35:08;;;;;;;9.23;4.80;;;;;;;10.74;44.99;99759.27;1745528;82;21150;-67
2021/04/25 07:37:36;;;;;;;8.28;5.40;;;;;;;10.71;44.11;99751.65;1745683;82;21723;-66
2021/04/25 07:40:05;;;;;;;9.35;5.58;;;;;;;10.57;43.56;99751.91;1742575;82;21137;-65
2021/04/25 07:42:33;;;;;;;7.42;4.85;;;;;;;10.27;44.27;99758.94;1710387;82;21455;-65
2021/04/25 07:45:03;;;;;;;8.60;4.45;;;;;;;9.98;45.43;99761.31;1736087;82;21192;-65
2021/04/25 07:47:30;;;;;;;8.70;5.30;;;;;;;9.80;45.73;99769.11;1731456;82;21800;-62
2021/04/25 07:49:58;;;;;;;9.98;4.95;;;;;;;9.53;46.71;99768.45;1728661;83;21810;-62
2021/04/25 07:52:26;;;;;;;8.43;5.05;;;;;;;9.41;47.47;99759.97;1734919;82;21168;-65
2021/04/25 07:54:55;;;;;;;9.98;5.37;;;;;;;9.27;47.96;99761.52;1728379;82;21139;-66
2021/04/25 07:57:22;;;;;;;7.17;3.92;;;;;;;9.14;48.52;99753.80;1729217;82;21185;-65
2021/04/25 07:59:52;;;;;;;9.25;4.37;;;;;;;9.10;48.59;99750.54;1726035;82;21238;-63
2021/04/25 08:02:22;;;;;;;9.53;5.35;;;;;;;9.12;49.46;99755.98;1728605;82;21764;-65
2021/04/25 08:04:51;;;;;;;8.45;5.37;;;;;;;9.13;49.54;99752.19;1724882;82;21138;-62
2021/04/25 08:07:20;;;;;;;9.15;4.80;;;;;;;9.13;49.08;99755.44;1726516;82;21185;-64
2021/04/25 08:09:48;;;;;;;13.78;8.53;;;;;;;9.24;49.37;99747.11;1727351;82;21170;-63
2021/04/25 08:12:15;;;;;;;12.60;7.00;;;;;;;9.49;49.51;99748.58;1723188;82;21345;-68
2021/04/25 08:14:44;;;;;;;10.25;5.85;;;;;;;9.69;48.63;99749.77;1723772;82;21186;-66
2021/04/25 08:17:12;;;;;;;9.13;4.35;;;;;;;9.70;48.04;99741.36;1738706;82;21202;-66
2021/04/25 08:19:39;;;;;;;8.75;5.08;;;;;;;9.64;48.31;99742.39;1716502;83;21614;-68
2021/04/25 08:22:07;;;;;;;8.50;4.70;;;;;;;9.78;47.48;99734.56;1722708;82;21301;-65
2021/04/25 08:24:35;;;;;;;8.45;5.17;;;;;;;10.09;48.56;99729.52;1722268;82;21168;-66
2021/04/25 08:27:03;;;;;;;7.83;5.37;;;;;;;10.32;47.73;99730.39;1726090;82;21171;-64
2021/04/25 08:29:30;;;;;;;13.13;9.38;;;;;;;10.43;46.71;99727.95;1721248;82;21190;-65
2021/04/25 08:31:58;;;;;;;7.83;5.25;;;;;;;10.41;46.80;99733.41;1725299;82;21649;-65
2021/04/25 08:34:25;;;;;;;15.98;12.60;;;;;;;10.41;46.34;99726.06;1724604;82;21340;-65
2021/04/25 08:36:53;;;;;;;8.23;5.30;;;;;;;10.33;46.05;99729.31;1723820;82;21256;-64
2021/04/25 08:39:20;;;;;;;13.83;7.97;;;;;;;10.21;45.56;99736.08;1727268;82;21233;-69
2021/04/25 08:41:48;;;;;;;18.70;11.93;;;;;;;10.10;46.64;99722.97;1724261;82;21158;-64
2021/04/25 08:44:20;;;;;;;7.62;4.80;;;;;;;10.03;47.01;99714.78;1721047;82;21553;-65
2021/04/25 08:46:49;;;;;;;10.35;5.70;;;;;;;10.09;46.69;99724.61;1725199;82;21183;-64
2021/04/25 08:49:18;;;;;;;9.18;5.10;;;;;;;10.14;45.60;99727.33;1721129;83;21716;-63
2021/04/25 08:51:46;;;;;;;6.10;4.40;;;;;;;10.13;46.15;99723.00;1721324;82;21135;-62
2021/04/25 08:54:15;;;;;;;9.78;5.22;;;;;;;10.19;46.97;99721.94;1725011;82;21170;-61
2021/04/25 08:56:43;;;;;;;8.43;4.58;;;;;;;10.21;46.29;99717.03;1742270;82;21723;-65
2021/04/25 08:59:11;;;;;;;8.88;5.05;;;;;;;10.25;45.89;99709.97;1743831;82;21340;-62
2021/04/25 09:01:39;;;;;;;8.15;4.58;;;;;;;10.29;46.65;99711.07;1734484;82;21298;-63
2021/04/25 09:04:06;;;;;;;7.67;4.42;;;;;;;10.37;46.29;99715.98;1747762;81;21205;-66
2021/04/25 09:06:34;;;;;;;7.67;4.42;;;;;;;10.45;46.94;99709.44;1742275;82;21126;-66
2021/04/25 09:09:07;;;;;;;8.20;4.62;;;;;;;10.57;46.90;99715.16;1731990;82;21130;-67
2021/04/25 09:11:36;;;;;;;6.53;4.80;;;;;;;10.66;45.97;99715.73;1736279;82;21114;-63
2021/04/25 09:14:24;;;;;;;12.80;7.85;;;;;;;10.85;46.01;99716.79;1729988;82;21653;-61
2021/04/25 09:17:01;;;;;;;6.97;4.37;;;;;;;11.09;46.56;99717.02;1741249;82;21644;-59
2021/04/25 09:19:51;;;;;;;;;;;;;;;11.31;45.50;99708.53;1734690;82;21202;-67
2021/04/25 09:22:19;;;;;;;8.45;4.40;;;;;;;11.40;44.71;99701.43;1699626;83;20538;-59
2021/04/25 09:24:47;;;;;;;8.68;5.90;;;;;;;11.26;43.15;99704.47;1732790;82;21651;-59
2021/04/25 09:27:27;;;;;;;9.83;4.47;;;;;;;11.27;41.97;99700.09;1742014;82;21184;-60
2021/04/25 09:32:33;;;;;;;8.77;5.20;;;;;;;11.23;43.56;99697.64;1762226;78;22969;-61
2021/04/25 09:35:17;;;;;;;6.65;4.22;;;;;;;11.06;44.95;99697.14;1719360;83;21172;-59
2021/04/25 09:37:49;;;;;;;7.95;4.20;;;;;;;11.03;43.42;99698.24;1715986;83;21605;-60
2021/04/25 09:40:23;;;;;;;8.30;4.60;;;;;;;10.92;43.65;99694.72;1709124;83;21183;-60
2021/04/25 09:43:08;;;;;;;8.50;5.22;;;;;;;11.08;45.29;99684.08;1666151;84;21770;-58
2021/04/25 09:45:45;;;;;;;5.87;3.83;;;;;;;11.41;44.50;99694.31;1664719;85;21778;-61
2021/04/25 09:48:26;;;;;;;10.68;5.62;;;;;;;11.65;43.28;99683.61;1676818;85;21541;-57
2021/04/25 09:51:10;;;;;;;7.40;4.65;;;;;;;11.54;41.59;99683.92;1678149;85;21221;-59
2021/04/25 09:53:52;;;;;;;11.30;4.80;;;;;;;11.35;41.74;99688.63;1680586;85;21332;-59
2021/04/25 09:56:24;;;;;;;6.85;4.00;;;;;;;11.33;42.83;99685.92;1653583;86;21197;-58
2021/04/25 09:59:01;;;;;;;8.20;4.67;;;;;;;11.39;42.51;99673.35;1632985;85;21231;-58
2021/04/25 10:01:35;;;;;;;7.58;4.08;;;;;;;11.37;42.73;99682.34;1657994;86;21198;-61
2021/04/25 10:04:06;;;;;;;5.87;3.42;;;;;;;11.28;42.87;99683.20;1676946;85;21204;-59
2021/04/25 10:06:52;;;;;;;6.70;4.25;;;;;;;11.27;42.53;99672.02;1647997;85;21326;-66
2021/04/25 10:09:19;;;;;;;7.00;3.95;;;;;;;11.19;42.27;99674.80;1639002;86;21346;-61
2021/04/25 10:11:50;;;;;;;7.00;4.03;;;;;;;10.88;42.11;99678.66;1682319;85;21178;-57
2021/04/25 10:14:18;;;;;;;6.25;4.08;;;;;;;10.74;43.41;99668.05;1673970;84;21387;-59
2021/04/25 10:16:46;;;;;;;12.60;6.08;;;;;;;10.70;43.12;99665.06;1677852;85;21187;-59
2021/04/25 10:19:14;;;;;;;6.92;4.60;;;;;;;10.85;43.63;99666.41;1677073;84;21206;-57
2021/04/25 10:24:20;;;;;;;20.40;11.93;;;;;;;11.20;43.73;99655.97;1767105;79;28472;-57
2021/04/25 10:27:09;;;;;;;13.05;7.58;;;;;;;11.61;43.83;99658.54;1726798;82;21168;-61
2021/04/25 10:29:55;;;;;;;16.27;8.08;;;;;;;11.96;41.69;99656.46;1738808;82;21676;-60
2021/04/25 10:32:23;;;;;;;6.72;4.90;;;;;;;11.93;41.54;99661.12;1730733;82;21176;-61
2021/04/25 10:35:20;;;;;;;7.55;4.58;;;;;;;11.74;41.31;99657.95;1733871;82;21164;-64
2021/04/25 10:37:48;;;;;;;14.78;9.80;;;;;;;11.45;41.70;99663.23;1733480;82;21156;-64
2021/04/25 10:40:23;;;;;;;8.78;5.15;;;;;;;11.12;42.59;99665.27;1715088;83;21145;-63
2021/04/25 10:43:10;;;;;;;10.03;6.50;;;;;;;10.95;43.70;99676.46;1640599;85;21800;-59
2021/04/25 10:45:58;;;;;;;10.45;6.22;;;;;;;10.88;43.79;99674.03;1664304;85;21341;-62
2021/04/25 10:48:35;;;;;;;9.05;5.70;;;;;;;10.74;45.38;99668.05;1681665;84;21163;-63
2021/04/25 10:51:12;;;;;;;11.25;6.40;;;;;;;10.48;47.34;99659.94;1706389;83;21259;-64
2021/04/25 10:53:43;;;;;;;13.93;7.37;;;;;;;10.42;48.42;99671.06;1675441;85;21259;-59
2021/04/25 10:56:18;;;;;;;9.10;5.70;;;;;;;10.45;49.63;99676.00;1663964;85;21592;-61
2021/04/25 10:58:48;;;;;;;10.18;6.85;;;;;;;10.31;49.48;99674.88;1684229;85;21169;-60
2021/04/25 11:01:42;;;;;;;9.03;4.90;;;;;;;10.22;50.21;99686.03;1681045;85;21562;-58
2021/04/25 11:04:10;;;;;;;8.50;5.40;;;;;;;10.02;50.04;99695.50;1668373;85;21334;-58
2021/04/25 11:06:37;;;;;;;8.85;4.65;;;;;;;9.75;51.25;99701.13;1695557;84;21175;-60
2021/04/25 11:09:05;;;;;;;7.62;5.58;;;;;;;9.58;51.89;99697.27;1691143;85;21180;-59
2021/04/25 11:11:38;;;;;;;7.65;5.25;;;;;;;9.50;52.38;99702.66;1681337;84;21157;-59
2021/04/25 11:14:06;;;;;;;8.15;5.20;;;;;;;9.37;52.32;99695.55;1667273;85;21352;-59
2021/04/25 11:16:35;;;;;;;12.20;5.08;;;;;;;9.33;52.78;99703.94;1678229;85;21302;-60
2021/04/25 11:19:06;;;;;;;8.58;5.10;;;;;;;9.35;54.04;99703.95;1693241;85;21323;-60
2021/04/25 11:21:50;;;;;;;8.45;5.75;;;;;;;9.32;54.16;99695.51;1684810;85;21193;-60
2021/04/25 11:24:25;;;;;;;10.63;6.55;;;;;;;9.35;54.99;99695.80;1654507;85;21769;-61
2021/04/25 11:26:56;;;;;;;10.53;6.85;;;;;;;9.48;53.36;99683.64;1717772;82;21593;-60
2021/04/25 11:29:32;;;;;;;7.90;4.80;;;;;;;9.68;53.59;99689.14;1687181;83;21170;-59
2021/04/25 11:32:00;;;;;;;9.05;4.80;;;;;;;9.92;53.51;99690.83;1727751;82;21117;-61
2021/04/25 11:34:37;;;;;;;9.23;6.00;;;;;;;10.16;52.12;99685.22;1737145;82;21165;-61
2021/04/25 11:37:20;;;;;;;8.45;5.03;;;;;;;10.30;51.05;99680.88;1696340;84;21166;-59
2021/04/25 11:40:03;;;;;;;8.05;5.12;;;;;;;10.31;51.19;99679.77;1725622;82;21552;-59
2021/04/25 11:42:46;;;;;;;7.62;4.40;;;;;;;10.31;51.50;99683.03;1728447;82;21617;-60
2021/04/25 11:45:15;;;;;;;7.30;4.15;;;;;;;10.23;50.41;99692.58;1652979;86;21170;-61
2021/04/25 11:47:48;;;;;;;8.70;4.53;;;;;;;10.06;50.78;99683.79;1731635;82;21303;-62
2021/04/25 11:50:17;;;;;;;9.28;4.80;;;;;;;9.89;51.68;99695.45;1679830;84;21316;-61
2021/04/25 11:52:45;;;;;;;7.47;4.87;;;;;;;9.62;52.83;99663.04;1668263;86;21309;-60
2021/04/25 11:55:17;;;;;;;7.25;4.33;;;;;;;9.69;53.29;99689.97;1709681;82;21577;-59
2021/04/25 11:57:50;;;;;;;6.78;4.20;;;;;;;9.57;53.05;99690.19;1716709;82;21177;-62